METAR és
SPECI
METAR LHBP 241430Z 07005KT 9999 BKN027 05/01 Q1028 NOSIG=
METAR LHBP 241400Z 07006KT 030V100 9999 BKN027 06/01 Q1027 NOSIG=
METAR LHBP 241330Z 07010KT 9999 BKN027 05/01 Q1027 NOSIG=
METAR LHBP 241300Z 07010KT 9999 BKN028 06/01 Q1027 NOSIG=
METAR LHBP 241230Z 09007KT 9999 SCT023 SCT030 06/01 Q1027 NOSIG=
METAR LHBP 241200Z 08006KT 9999 SCT023 SCT032 06/00 Q1027 NOSIG=
TAF
TAF LHBP 241100Z 2412/2512 10005KT 9999 BKN030 BECMG 2422/2501 6000 BKN015 OVC060 TEMPO 2501/2507 3000 RA RASN OVC005=
GAMET
FAHU41 LHBM 241100
LHCC GAMET VALID 241200/241800 LHBP-
BUDAPEST FIR BLW FL100
SECN 1
SFC VIS: 0500-5000M FG BCFG BR NE OF LINE N4829 E02029 -
N4714 E02151 AND W OF E01700
SIG CLD: BKN/OVC SFC-0500/1500-2000 FT AGL NE OF LINE
N4829 E02029 - N4714 E02151 AND W OF E01700
SIGMETS APPLICABLE: NIL=
OMSZ: 2014. november 24. 11:36 (10:36  UTC)
[FAHU41]
AIRMET
Nincs érvényes távirat! 
WAHU41 LHBM 151030
LHCC AIRMET 01 VALID 151030/151200 LHBP-
LHCC BUDAPEST FIR SFC VIS 0200-5000M FG BCFG BR
AND SIG CLD BKN/OVC 0100-0500/1000-1200FT AGL
WI N4745 E02013 - N4823 E02139 - N4715 E02150 STNR WKN=
SIGMET
Nincs érvényes távirat! 
WSHU31 LHBM 181010
LHCC SIGMET 03 VALID 181010/1813010 LHBP-
LHCC BUDAPEST FIR SEV ICE FCST E OF LINE N4555 E01855 -
N4700 E01900 - N4744 E01819 8500FT/FL150 MOV ENE NC=
SIGMET
Vulkáni hamufelhő
Not valid product! 
WVHU31 LHBM 271515 CCA
LHCC SIGMET 03 VALID 271515/271800 LHBP-
LHCC BUDAPEST FIR EXERCISE VOLCEX12/01
CNL VA SIGMET 02 271200/271800
EXERCISE EXERCISE EXERCISE VOLCEX12/01=